sensor_id;sensor_type;location;lat;lon;timestamp;P1;durP1;ratioP1;P2;durP2;ratioP2
16626;SDS011;8427;52.204;7.202;2023-08-07T00:01:13;46.43;;;43.63;;
16626;SDS011;8427;52.204;7.202;2023-08-07T00:03:41;46.50;;;43.60;;
16626;SDS011;8427;52.204;7.202;2023-08-07T00:06:09;49.70;;;46.30;;
16626;SDS011;8427;52.204;7.202;2023-08-07T00:08:37;45.97;;;43.20;;
16626;SDS011;8427;52.204;7.202;2023-08-07T00:11:05;41.83;;;39.73;;
16626;SDS011;8427;52.204;7.202;2023-08-07T00:13:36;43.57;;;41.27;;
16626;SDS011;8427;52.204;7.202;2023-08-07T00:16:04;67.63;;;55.40;;
16626;SDS011;8427;52.204;7.202;2023-08-07T00:18:32;54.90;;;50.20;;
16626;SDS011;8427;52.204;7.202;2023-08-07T00:21:00;41.80;;;39.80;;
16626;SDS011;8427;52.204;7.202;2023-08-07T00:26:00;43.03;;;40.87;;
16626;SDS011;8427;52.204;7.202;2023-08-07T00:28:28;40.83;;;38.93;;
16626;SDS011;8427;52.204;7.202;2023-08-07T00:30:58;41.93;;;39.83;;
16626;SDS011;8427;52.204;7.202;2023-08-07T00:33:25;40.80;;;38.90;;
16626;SDS011;8427;52.204;7.202;2023-08-07T00:35:53;41.40;;;39.40;;
16626;SDS011;8427;52.204;7.202;2023-08-07T00:38:21;40.17;;;38.37;;
16626;SDS011;8427;52.204;7.202;2023-08-07T00:40:49;43.27;;;41.07;;
16626;SDS011;8427;52.204;7.202;2023-08-07T00:43:17;43.67;;;41.40;;
16626;SDS011;8427;52.204;7.202;2023-08-07T00:45:46;38.80;;;37.20;;
16626;SDS011;8427;52.204;7.202;2023-08-07T00:48:16;39.40;;;37.67;;
16626;SDS011;8427;52.204;7.202;2023-08-07T00:50:44;43.10;;;40.90;;
16626;SDS011;8427;52.204;7.202;2023-08-07T00:53:13;38.93;;;37.27;;
16626;SDS011;8427;52.204;7.202;2023-08-07T00:55:41;40.33;;;38.70;;
16626;SDS011;8427;52.204;7.202;2023-08-07T00:58:10;41.17;;;39.17;;
16626;SDS011;8427;52.204;7.202;2023-08-07T01:00:38;41.10;;;39.20;;
16626;SDS011;8427;52.204;7.202;2023-08-07T01:03:08;44.67;;;42.30;;
16626;SDS011;8427;52.204;7.202;2023-08-07T01:05:38;41.47;;;39.47;;
16626;SDS011;8427;52.204;7.202;2023-08-07T01:08:07;40.43;;;38.67;;
16626;SDS011;8427;52.204;7.202;2023-08-07T01:10:38;40.67;;;38.77;;
16626;SDS011;8427;52.204;7.202;2023-08-07T01:13:17;45.07;;;42.67;;
16626;SDS011;8427;52.204;7.202;2023-08-07T01:15:52;45.33;;;42.93;;
16626;SDS011;8427;52.204;7.202;2023-08-07T01:18:26;42.70;;;40.53;;
16626;SDS011;8427;52.204;7.202;2023-08-07T01:20:57;42.60;;;40.40;;
16626;SDS011;8427;52.204;7.202;2023-08-07T01:23:26;39.13;;;37.43;;
16626;SDS011;8427;52.204;7.202;2023-08-07T01:25:54;42.57;;;40.50;;
16626;SDS011;8427;52.204;7.202;2023-08-07T01:28:23;43.47;;;41.17;;
16626;SDS011;8427;52.204;7.202;2023-08-07T01:30:55;44.43;;;42.03;;
16626;SDS011;8427;52.204;7.202;2023-08-07T01:33:31;44.93;;;42.53;;
16626;SDS011;8427;52.204;7.202;2023-08-07T01:36:02;44.87;;;42.47;;
16626;SDS011;8427;52.204;7.202;2023-08-07T01:38:35;43.97;;;41.60;;
16626;SDS011;8427;52.204;7.202;2023-08-07T01:41:04;39.30;;;37.50;;
16626;SDS011;8427;52.204;7.202;2023-08-07T01:43:33;41.27;;;39.33;;
16626;SDS011;8427;52.204;7.202;2023-08-07T01:46:01;42.07;;;39.97;;
16626;SDS011;8427;52.204;7.202;2023-08-07T01:48:31;43.27;;;41.03;;
16626;SDS011;8427;52.204;7.202;2023-08-07T01:50:59;35.07;;;33.77;;
16626;SDS011;8427;52.204;7.202;2023-08-07T01:53:27;37.73;;;36.20;;
16626;SDS011;8427;52.204;7.202;2023-08-07T01:55:56;35.80;;;34.40;;
16626;SDS011;8427;52.204;7.202;2023-08-07T01:58:24;40.05;;;38.25;;
16626;SDS011;8427;52.204;7.202;2023-08-07T02:00:52;36.10;;;34.70;;
16626;SDS011;8427;52.204;7.202;2023-08-07T02:03:20;38.93;;;37.23;;
16626;SDS011;8427;52.204;7.202;2023-08-07T02:05:48;40.77;;;38.87;;
16626;SDS011;8427;52.204;7.202;2023-08-07T02:08:16;38.30;;;36.70;;
16626;SDS011;8427;52.204;7.202;2023-08-07T02:10:44;39.53;;;37.77;;
16626;SDS011;8427;52.204;7.202;2023-08-07T02:13:14;41.90;;;39.83;;
16626;SDS011;8427;52.204;7.202;2023-08-07T02:15:42;39.67;;;37.97;;
16626;SDS011;8427;52.204;7.202;2023-08-07T02:18:10;37.40;;;35.90;;
16626;SDS011;8427;52.204;7.202;2023-08-07T02:20:37;39.33;;;37.63;;
16626;SDS011;8427;52.204;7.202;2023-08-07T02:23:05;43.47;;;41.30;;
16626;SDS011;8427;52.204;7.202;2023-08-07T02:25:34;39.67;;;37.87;;
16626;SDS011;8427;52.204;7.202;2023-08-07T02:28:02;43.83;;;41.53;;
16626;SDS011;8427;52.204;7.202;2023-08-07T02:30:31;41.77;;;39.73;;
16626;SDS011;8427;52.204;7.202;2023-08-07T02:32:59;45.37;;;42.97;;
16626;SDS011;8427;52.204;7.202;2023-08-07T02:35:27;45.37;;;42.97;;
16626;SDS011;8427;52.204;7.202;2023-08-07T02:37:55;42.23;;;40.13;;
16626;SDS011;8427;52.204;7.202;2023-08-07T02:40:23;45.37;;;42.90;;
16626;SDS011;8427;52.204;7.202;2023-08-07T02:42:51;42.93;;;40.80;;
16626;SDS011;8427;52.204;7.202;2023-08-07T02:45:19;38.77;;;37.10;;
16626;SDS011;8427;52.204;7.202;2023-08-07T02:47:48;39.83;;;38.03;;
16626;SDS011;8427;52.204;7.202;2023-08-07T02:50:16;36.50;;;35.10;;
16626;SDS011;8427;52.204;7.202;2023-08-07T02:52:44;36.07;;;34.67;;
16626;SDS011;8427;52.204;7.202;2023-08-07T02:55:12;38.67;;;37.03;;
16626;SDS011;8427;52.204;7.202;2023-08-07T02:57:39;41.90;;;39.90;;
16626;SDS011;8427;52.204;7.202;2023-08-07T03:00:08;41.60;;;39.60;;
16626;SDS011;8427;52.204;7.202;2023-08-07T03:02:37;38.63;;;36.97;;
16626;SDS011;8427;52.204;7.202;2023-08-07T03:05:07;41.90;;;39.90;;
16626;SDS011;8427;52.204;7.202;2023-08-07T03:07:36;39.90;;;38.10;;
16626;SDS011;8427;52.204;7.202;2023-08-07T03:10:04;39.33;;;37.60;;
16626;SDS011;8427;52.204;7.202;2023-08-07T03:12:33;38.13;;;36.53;;
16626;SDS011;8427;52.204;7.202;2023-08-07T03:15:01;40.33;;;38.47;;
16626;SDS011;8427;52.204;7.202;2023-08-07T03:17:29;43.40;;;41.20;;
16626;SDS011;8427;52.204;7.202;2023-08-07T03:19:57;41.57;;;39.57;;
16626;SDS011;8427;52.204;7.202;2023-08-07T03:22:26;41.70;;;39.67;;
16626;SDS011;8427;52.204;7.202;2023-08-07T03:24:54;43.70;;;41.50;;
16626;SDS011;8427;52.204;7.202;2023-08-07T03:27:22;45.20;;;42.80;;
16626;SDS011;8427;52.204;7.202;2023-08-07T03:29:50;38.20;;;36.60;;
16626;SDS011;8427;52.204;7.202;2023-08-07T03:32:18;44.43;;;42.10;;
16626;SDS011;8427;52.204;7.202;2023-08-07T03:34:46;42.10;;;40.10;;
16626;SDS011;8427;52.204;7.202;2023-08-07T03:37:14;37.87;;;36.23;;
16626;SDS011;8427;52.204;7.202;2023-08-07T03:39:43;44.23;;;41.87;;
16626;SDS011;8427;52.204;7.202;2023-08-07T03:42:14;44.20;;;41.93;;
16626;SDS011;8427;52.204;7.202;2023-08-07T03:44:42;41.30;;;39.40;;
16626;SDS011;8427;52.204;7.202;2023-08-07T03:47:10;45.80;;;43.33;;
16626;SDS011;8427;52.204;7.202;2023-08-07T03:49:37;45.63;;;43.20;;
16626;SDS011;8427;52.204;7.202;2023-08-07T03:52:06;46.30;;;43.80;;
16626;SDS011;8427;52.204;7.202;2023-08-07T03:54:34;46.77;;;44.17;;
16626;SDS011;8427;52.204;7.202;2023-08-07T03:57:03;42.27;;;40.17;;
16626;SDS011;8427;52.204;7.202;2023-08-07T03:59:31;37.80;;;36.20;;
16626;SDS011;8427;52.204;7.202;2023-08-07T04:01:59;46.40;;;43.80;;
16626;SDS011;8427;52.204;7.202;2023-08-07T04:04:27;46.13;;;43.60;;
16626;SDS011;8427;52.204;7.202;2023-08-07T04:06:55;38.57;;;36.93;;
16626;SDS011;8427;52.204;7.202;2023-08-07T04:09:23;41.17;;;39.17;;
16626;SDS011;8427;52.204;7.202;2023-08-07T04:11:52;43.83;;;41.60;;
16626;SDS011;8427;52.204;7.202;2023-08-07T04:14:21;47.20;;;44.60;;
16626;SDS011;8427;52.204;7.202;2023-08-07T04:16:49;41.90;;;39.87;;
16626;SDS011;8427;52.204;7.202;2023-08-07T04:19:17;42.43;;;40.33;;
16626;SDS011;8427;52.204;7.202;2023-08-07T04:21:45;41.50;;;39.53;;
16626;SDS011;8427;52.204;7.202;2023-08-07T04:24:13;38.97;;;37.27;;
16626;SDS011;8427;52.204;7.202;2023-08-07T04:26:41;44.00;;;41.70;;
16626;SDS011;8427;52.204;7.202;2023-08-07T04:29:09;43.90;;;41.70;;
16626;SDS011;8427;52.204;7.202;2023-08-07T04:31:38;47.07;;;44.40;;
16626;SDS011;8427;52.204;7.202;2023-08-07T04:34:06;42.30;;;40.20;;
16626;SDS011;8427;52.204;7.202;2023-08-07T04:36:34;47.57;;;44.87;;
16626;SDS011;8427;52.204;7.202;2023-08-07T04:39:02;47.93;;;45.17;;
16626;SDS011;8427;52.204;7.202;2023-08-07T04:41:30;46.10;;;43.60;;
16626;SDS011;8427;52.204;7.202;2023-08-07T04:43:58;47.20;;;44.53;;
16626;SDS011;8427;52.204;7.202;2023-08-07T04:46:26;61.57;;;56.07;;
16626;SDS011;8427;52.204;7.202;2023-08-07T04:48:55;55.07;;;51.20;;
16626;SDS011;8427;52.204;7.202;2023-08-07T04:51:25;55.97;;;52.03;;
16626;SDS011;8427;52.204;7.202;2023-08-07T04:53:56;52.37;;;48.90;;
16626;SDS011;8427;52.204;7.202;2023-08-07T04:56:24;68.53;;;61.50;;
16626;SDS011;8427;52.204;7.202;2023-08-07T04:58:52;56.17;;;51.90;;
16626;SDS011;8427;52.204;7.202;2023-08-07T05:01:20;46.20;;;43.40;;
16626;SDS011;8427;52.204;7.202;2023-08-07T05:03:48;41.70;;;39.70;;
16626;SDS011;8427;52.204;7.202;2023-08-07T05:06:18;44.20;;;41.70;;
16626;SDS011;8427;52.204;7.202;2023-08-07T05:08:46;45.57;;;42.93;;
16626;SDS011;8427;52.204;7.202;2023-08-07T05:11:14;43.50;;;41.20;;
16626;SDS011;8427;52.204;7.202;2023-08-07T05:13:42;68.70;;;60.00;;
16626;SDS011;8427;52.204;7.202;2023-08-07T05:16:10;45.00;;;42.50;;
16626;SDS011;8427;52.204;7.202;2023-08-07T05:18:38;44.90;;;42.40;;
16626;SDS011;8427;52.204;7.202;2023-08-07T05:21:06;60.07;;;53.77;;
16626;SDS011;8427;52.204;7.202;2023-08-07T05:23:36;70.07;;;57.03;;
16626;SDS011;8427;52.204;7.202;2023-08-07T05:26:04;65.27;;;57.30;;
16626;SDS011;8427;52.204;7.202;2023-08-07T05:28:32;52.13;;;48.03;;
16626;SDS011;8427;52.204;7.202;2023-08-07T05:31:00;68.27;;;60.93;;
16626;SDS011;8427;52.204;7.202;2023-08-07T05:33:28;46.57;;;42.47;;
16626;SDS011;8427;52.204;7.202;2023-08-07T05:35:56;66.40;;;59.47;;
16626;SDS011;8427;52.204;7.202;2023-08-07T05:38:23;42.60;;;40.43;;
16626;SDS011;8427;52.204;7.202;2023-08-07T05:40:53;62.17;;;54.87;;
16626;SDS011;8427;52.204;7.202;2023-08-07T05:43:21;58.60;;;52.70;;
16626;SDS011;8427;52.204;7.202;2023-08-07T05:45:49;43.40;;;41.10;;
16626;SDS011;8427;52.204;7.202;2023-08-07T05:48:17;52.47;;;48.17;;
16626;SDS011;8427;52.204;7.202;2023-08-07T05:50:45;69.63;;;56.60;;
16626;SDS011;8427;52.204;7.202;2023-08-07T05:53:13;64.23;;;57.53;;
16626;SDS011;8427;52.204;7.202;2023-08-07T05:55:41;48.20;;;45.10;;
16626;SDS011;8427;52.204;7.202;2023-08-07T05:58:10;67.37;;;60.23;;
16626;SDS011;8427;52.204;7.202;2023-08-07T06:00:38;58.67;;;53.10;;
16626;SDS011;8427;52.204;7.202;2023-08-07T06:03:06;12.07;;;11.75;;
16626;SDS011;8427;52.204;7.202;2023-08-07T06:05:34;61.17;;;53.47;;
16626;SDS011;8427;52.204;7.202;2023-08-07T06:08:02;55.40;;;50.27;;
16626;SDS011;8427;52.204;7.202;2023-08-07T06:15:29;37.70;;;36.10;;
16626;SDS011;8427;52.204;7.202;2023-08-07T06:17:58;41.70;;;39.70;;
16626;SDS011;8427;52.204;7.202;2023-08-07T06:20:26;41.97;;;39.87;;
16626;SDS011;8427;52.204;7.202;2023-08-07T06:22:54;41.37;;;39.37;;
16626;SDS011;8427;52.204;7.202;2023-08-07T06:25:22;42.03;;;39.93;;
16626;SDS011;8427;52.204;7.202;2023-08-07T06:27:50;49.50;;;46.00;;
16626;SDS011;8427;52.204;7.202;2023-08-07T06:30:18;71.93;;;61.73;;
16626;SDS011;8427;52.204;7.202;2023-08-07T06:37:43;44.10;;;41.70;;
16626;SDS011;8427;52.204;7.202;2023-08-07T06:40:11;44.70;;;42.20;;
16626;SDS011;8427;52.204;7.202;2023-08-07T06:42:39;42.10;;;40.00;;
16626;SDS011;8427;52.204;7.202;2023-08-07T06:45:07;48.50;;;45.30;;
16626;SDS011;8427;52.204;7.202;2023-08-07T06:50:05;41.40;;;39.50;;
16626;SDS011;8427;52.204;7.202;2023-08-07T06:52:33;41.53;;;39.53;;
16626;SDS011;8427;52.204;7.202;2023-08-07T06:55:02;46.57;;;43.80;;
16626;SDS011;8427;52.204;7.202;2023-08-07T06:57:30;43.27;;;40.97;;
16626;SDS011;8427;52.204;7.202;2023-08-07T07:32:03;54.15;;;49.15;;
16626;SDS011;8427;52.204;7.202;2023-08-07T07:34:31;59.10;;;52.80;;
16626;SDS011;8427;52.204;7.202;2023-08-07T07:41:56;50.92;;;47.30;;
16626;SDS011;8427;52.204;7.202;2023-08-07T07:44:24;64.37;;;54.33;;
16626;SDS011;8427;52.204;7.202;2023-08-07T07:46:52;51.50;;;47.50;;
16626;SDS011;8427;52.204;7.202;2023-08-07T07:49:20;49.10;;;45.70;;
16626;SDS011;8427;52.204;7.202;2023-08-07T07:51:48;55.20;;;50.10;;
16626;SDS011;8427;52.204;7.202;2023-08-07T07:54:16;55.67;;;50.63;;
16626;SDS011;8427;52.204;7.202;2023-08-07T07:56:44;48.83;;;45.33;;
16626;SDS011;8427;52.204;7.202;2023-08-07T07:59:14;46.70;;;43.80;;
16626;SDS011;8427;52.204;7.202;2023-08-07T08:01:42;64.87;;;53.40;;
16626;SDS011;8427;52.204;7.202;2023-08-07T08:04:10;60.55;;;53.17;;
16626;SDS011;8427;52.204;7.202;2023-08-07T08:06:39;76.50;;;60.33;;
16626;SDS011;8427;52.204;7.202;2023-08-07T08:19:00;48.13;;;45.03;;
16626;SDS011;8427;52.204;7.202;2023-08-07T08:21:29;44.17;;;41.77;;
16626;SDS011;8427;52.204;7.202;2023-08-07T08:23:58;57.58;;;51.55;;
16626;SDS011;8427;52.204;7.202;2023-08-07T08:26:26;59.20;;;53.57;;
16626;SDS011;8427;52.204;7.202;2023-08-07T08:28:54;67.43;;;60.23;;
16626;SDS011;8427;52.204;7.202;2023-08-07T08:31:22;51.60;;;47.50;;
16626;SDS011;8427;52.204;7.202;2023-08-07T08:33:52;58.30;;;51.90;;
16626;SDS011;8427;52.204;7.202;2023-08-07T08:36:20;82.37;;;54.77;;
16626;SDS011;8427;52.204;7.202;2023-08-07T08:38:48;70.53;;;52.73;;
16626;SDS011;8427;52.204;7.202;2023-08-07T08:41:17;82.33;;;54.33;;
16626;SDS011;8427;52.204;7.202;2023-08-07T08:43:46;60.83;;;50.83;;
16626;SDS011;8427;52.204;7.202;2023-08-07T08:46:16;49.90;;;45.50;;
16626;SDS011;8427;52.204;7.202;2023-08-07T08:48:50;62.13;;;48.60;;
16626;SDS011;8427;52.204;7.202;2023-08-07T08:51:23;52.53;;;47.00;;
16626;SDS011;8427;52.204;7.202;2023-08-07T08:53:52;66.27;;;48.97;;
16626;SDS011;8427;52.204;7.202;2023-08-07T08:56:22;74.90;;;50.17;;
16626;SDS011;8427;52.204;7.202;2023-08-07T08:58:50;66.28;;;51.95;;
16626;SDS011;8427;52.204;7.202;2023-08-07T09:01:19;50.80;;;46.30;;
16626;SDS011;8427;52.204;7.202;2023-08-07T09:03:53;86.45;;;53.83;;
16626;SDS011;8427;52.204;7.202;2023-08-07T09:06:21;133.88;;;68.90;;
16626;SDS011;8427;52.204;7.202;2023-08-07T09:08:51;115.88;;;57.53;;
16626;SDS011;8427;52.204;7.202;2023-08-07T09:11:21;68.53;;;51.40;;
16626;SDS011;8427;52.204;7.202;2023-08-07T09:13:49;63.30;;;50.10;;
16626;SDS011;8427;52.204;7.202;2023-08-07T09:16:17;144.48;;;75.30;;
16626;SDS011;8427;52.204;7.202;2023-08-07T09:18:45;134.82;;;62.30;;
16626;SDS011;8427;52.204;7.202;2023-08-07T09:21:16;65.97;;;49.85;;
16626;SDS011;8427;52.204;7.202;2023-08-07T09:23:45;135.57;;;62.20;;
16626;SDS011;8427;52.204;7.202;2023-08-07T09:26:13;73.97;;;50.90;;
16626;SDS011;8427;52.204;7.202;2023-08-07T09:28:48;71.50;;;50.70;;
16626;SDS011;8427;52.204;7.202;2023-08-07T09:31:18;69.90;;;50.70;;
16626;SDS011;8427;52.204;7.202;2023-08-07T09:33:47;68.65;;;52.60;;
16626;SDS011;8427;52.204;7.202;2023-08-07T09:36:17;97.28;;;54.00;;
16626;SDS011;8427;52.204;7.202;2023-08-07T09:38:49;77.10;;;51.70;;
16626;SDS011;8427;52.204;7.202;2023-08-07T09:41:17;74.55;;;52.25;;
16626;SDS011;8427;52.204;7.202;2023-08-07T09:43:45;163.80;;;77.38;;
16626;SDS011;8427;52.204;7.202;2023-08-07T09:46:13;76.93;;;51.20;;
16626;SDS011;8427;52.204;7.202;2023-08-07T09:48:42;147.97;;;68.60;;
16626;SDS011;8427;52.204;7.202;2023-08-07T09:51:11;72.50;;;48.97;;
16626;SDS011;8427;52.204;7.202;2023-08-07T09:53:40;177.30;;;76.87;;
16626;SDS011;8427;52.204;7.202;2023-08-07T09:56:08;54.17;;;46.17;;
16626;SDS011;8427;52.204;7.202;2023-08-07T09:58:36;51.13;;;45.90;;
16626;SDS011;8427;52.204;7.202;2023-08-07T10:01:04;49.53;;;44.83;;
16626;SDS011;8427;52.204;7.202;2023-08-07T10:03:35;48.37;;;44.07;;
16626;SDS011;8427;52.204;7.202;2023-08-07T10:06:04;48.50;;;44.30;;
16626;SDS011;8427;52.204;7.202;2023-08-07T10:08:32;48.60;;;44.50;;
16626;SDS011;8427;52.204;7.202;2023-08-07T10:11:03;48.20;;;44.10;;
16626;SDS011;8427;52.204;7.202;2023-08-07T10:13:31;49.87;;;45.33;;
16626;SDS011;8427;52.204;7.202;2023-08-07T10:16:05;111.10;;;59.37;;
16626;SDS011;8427;52.204;7.202;2023-08-07T10:18:34;51.73;;;46.60;;
16626;SDS011;8427;52.204;7.202;2023-08-07T10:38:25;60.03;;;49.30;;
16626;SDS011;8427;52.204;7.202;2023-08-07T10:41:00;182.30;;;87.65;;
16626;SDS011;8427;52.204;7.202;2023-08-07T10:43:36;226.90;;;181.48;;
16626;SDS011;8427;52.204;7.202;2023-08-07T10:46:05;197.45;;;95.05;;
16626;SDS011;8427;52.204;7.202;2023-08-07T10:48:42;90.45;;;50.97;;
16626;SDS011;8427;52.204;7.202;2023-08-07T10:51:13;74.20;;;50.30;;
16626;SDS011;8427;52.204;7.202;2023-08-07T10:53:42;76.20;;;51.10;;
16626;SDS011;8427;52.204;7.202;2023-08-07T10:56:14;85.40;;;51.65;;
16626;SDS011;8427;52.204;7.202;2023-08-07T10:58:47;97.15;;;52.50;;
16626;SDS011;8427;52.204;7.202;2023-08-07T11:01:21;103.50;;;54.00;;
16626;SDS011;8427;52.204;7.202;2023-08-07T11:13:47;152.82;;;60.55;;
16626;SDS011;8427;52.204;7.202;2023-08-07T11:16:15;216.80;;;103.83;;
16626;SDS011;8427;52.204;7.202;2023-08-07T11:18:44;210.30;;;97.03;;
16626;SDS011;8427;52.204;7.202;2023-08-07T11:21:12;189.80;;;81.38;;
16626;SDS011;8427;52.204;7.202;2023-08-07T11:31:07;107.13;;;54.00;;
16626;SDS011;8427;52.204;7.202;2023-08-07T11:33:35;101.50;;;53.80;;
16626;SDS011;8427;52.204;7.202;2023-08-07T11:36:03;195.40;;;70.40;;
16626;SDS011;8427;52.204;7.202;2023-08-07T11:38:39;79.13;;;49.92;;
16626;SDS011;8427;52.204;7.202;2023-08-07T11:41:10;74.50;;;49.90;;
16626;SDS011;8427;52.204;7.202;2023-08-07T11:43:42;98.07;;;53.22;;
16626;SDS011;8427;52.204;7.202;2023-08-07T11:46:11;82.63;;;52.50;;
16626;SDS011;8427;52.204;7.202;2023-08-07T11:48:40;81.93;;;51.40;;
16626;SDS011;8427;52.204;7.202;2023-08-07T11:51:09;84.80;;;52.00;;
16626;SDS011;8427;52.204;7.202;2023-08-07T11:53:39;102.20;;;53.60;;
16626;SDS011;8427;52.204;7.202;2023-08-07T11:56:09;198.90;;;98.90;;
16626;SDS011;8427;52.204;7.202;2023-08-07T12:18:33;84.43;;;51.13;;
16626;SDS011;8427;52.204;7.202;2023-08-07T12:21:02;83.38;;;51.67;;
16626;SDS011;8427;52.204;7.202;2023-08-07T12:26:19;84.40;;;52.05;;
16626;SDS011;8427;52.204;7.202;2023-08-07T12:28:47;85.07;;;52.58;;
16626;SDS011;8427;52.204;7.202;2023-08-07T12:31:17;97.55;;;54.75;;
16626;SDS011;8427;52.204;7.202;2023-08-07T12:33:45;93.65;;;53.28;;
16626;SDS011;8427;52.204;7.202;2023-08-07T12:36:13;90.75;;;52.88;;
16626;SDS011;8427;52.204;7.202;2023-08-07T12:38:44;104.20;;;54.50;;
16626;SDS011;8427;52.204;7.202;2023-08-07T12:41:13;109.93;;;55.30;;
16626;SDS011;8427;52.204;7.202;2023-08-07T12:43:44;111.65;;;55.40;;
16626;SDS011;8427;52.204;7.202;2023-08-07T12:46:12;109.88;;;55.05;;
16626;SDS011;8427;52.204;7.202;2023-08-07T12:48:44;139.23;;;56.10;;
16626;SDS011;8427;52.204;7.202;2023-08-07T12:51:12;146.40;;;55.23;;
16626;SDS011;8427;52.204;7.202;2023-08-07T12:53:40;157.60;;;62.95;;
16626;SDS011;8427;52.204;7.202;2023-08-07T13:25:52;90.80;;;51.20;;
16626;SDS011;8427;52.204;7.202;2023-08-07T13:33:16;69.05;;;49.55;;
16626;SDS011;8427;52.204;7.202;2023-08-07T13:35:46;76.07;;;51.70;;
16626;SDS011;8427;52.204;7.202;2023-08-07T13:38:14;83.05;;;54.03;;
16626;SDS011;8427;52.204;7.202;2023-08-07T13:40:46;81.80;;;52.40;;
16626;SDS011;8427;52.204;7.202;2023-08-07T13:43:14;90.47;;;52.60;;
16626;SDS011;8427;52.204;7.202;2023-08-07T13:45:42;92.83;;;54.37;;
16626;SDS011;8427;52.204;7.202;2023-08-07T13:48:10;92.88;;;54.25;;
16626;SDS011;8427;52.204;7.202;2023-08-07T13:50:38;100.32;;;53.60;;
16626;SDS011;8427;52.204;7.202;2023-08-07T13:53:07;183.87;;;73.70;;
16626;SDS011;8427;52.204;7.202;2023-08-07T14:03:07;148.00;;;62.17;;
16626;SDS011;8427;52.204;7.202;2023-08-07T14:05:36;235.25;;;129.95;;
16626;SDS011;8427;52.204;7.202;2023-08-07T14:08:05;168.57;;;59.80;;
16626;SDS011;8427;52.204;7.202;2023-08-07T14:10:33;172.43;;;67.80;;
16626;SDS011;8427;52.204;7.202;2023-08-07T14:13:02;169.75;;;70.70;;
16626;SDS011;8427;52.204;7.202;2023-08-07T14:15:31;246.93;;;95.80;;
16626;SDS011;8427;52.204;7.202;2023-08-07T14:17:59;148.77;;;55.87;;
16626;SDS011;8427;52.204;7.202;2023-08-07T14:20:27;152.93;;;56.50;;
16626;SDS011;8427;52.204;7.202;2023-08-07T14:22:55;173.10;;;59.43;;
16626;SDS011;8427;52.204;7.202;2023-08-07T14:25:41;142.33;;;56.20;;
16626;SDS011;8427;52.204;7.202;2023-08-07T14:28:10;248.00;;;93.57;;
16626;SDS011;8427;52.204;7.202;2023-08-07T14:30:40;176.97;;;64.93;;
16626;SDS011;8427;52.204;7.202;2023-08-07T14:33:07;110.30;;;54.53;;
16626;SDS011;8427;52.204;7.202;2023-08-07T14:35:35;149.60;;;58.73;;
16626;SDS011;8427;52.204;7.202;2023-08-07T14:38:03;161.13;;;62.83;;
16626;SDS011;8427;52.204;7.202;2023-08-07T14:40:31;90.57;;;51.07;;
16626;SDS011;8427;52.204;7.202;2023-08-07T14:43:00;95.32;;;52.63;;
16626;SDS011;8427;52.204;7.202;2023-08-07T14:45:28;100.20;;;51.90;;
16626;SDS011;8427;52.204;7.202;2023-08-07T14:47:57;91.70;;;51.17;;
16626;SDS011;8427;52.204;7.202;2023-08-07T14:50:25;99.07;;;51.70;;
16626;SDS011;8427;52.204;7.202;2023-08-07T14:52:53;225.47;;;88.87;;
16626;SDS011;8427;52.204;7.202;2023-08-07T14:55:21;106.37;;;53.40;;
16626;SDS011;8427;52.204;7.202;2023-08-07T14:57:49;117.95;;;56.05;;
16626;SDS011;8427;52.204;7.202;2023-08-07T15:00:17;268.83;;;124.47;;
16626;SDS011;8427;52.204;7.202;2023-08-07T15:02:46;210.27;;;68.20;;
16626;SDS011;8427;52.204;7.202;2023-08-07T15:05:15;165.13;;;59.67;;
16626;SDS011;8427;52.204;7.202;2023-08-07T15:07:45;117.37;;;53.23;;
16626;SDS011;8427;52.204;7.202;2023-08-07T15:10:13;136.20;;;55.17;;
16626;SDS011;8427;52.204;7.202;2023-08-07T15:12:41;259.77;;;84.47;;
16626;SDS011;8427;52.204;7.202;2023-08-07T15:15:09;110.63;;;51.90;;
16626;SDS011;8427;52.204;7.202;2023-08-07T15:17:37;159.07;;;56.77;;
16626;SDS011;8427;52.204;7.202;2023-08-07T15:29:58;114.65;;;53.03;;
16626;SDS011;8427;52.204;7.202;2023-08-07T15:32:26;124.77;;;54.07;;
16626;SDS011;8427;52.204;7.202;2023-08-07T15:34:54;167.60;;;57.90;;
16626;SDS011;8427;52.204;7.202;2023-08-07T15:37:22;165.40;;;56.30;;
16626;SDS011;8427;52.204;7.202;2023-08-07T15:39:52;185.43;;;71.97;;
16626;SDS011;8427;52.204;7.202;2023-08-07T15:42:20;64.23;;;42.80;;
16626;SDS011;8427;52.204;7.202;2023-08-07T15:44:47;140.40;;;60.60;;
16626;SDS011;8427;52.204;7.202;2023-08-07T16:44:12;86.65;;;51.00;;
16626;SDS011;8427;52.204;7.202;2023-08-07T16:46:40;187.07;;;61.57;;
16626;SDS011;8427;52.204;7.202;2023-08-07T16:49:09;225.80;;;102.17;;
16626;SDS011;8427;52.204;7.202;2023-08-07T16:51:37;198.20;;;62.40;;
16626;SDS011;8427;52.204;7.202;2023-08-07T16:54:05;169.13;;;58.40;;
16626;SDS011;8427;52.204;7.202;2023-08-07T16:56:33;211.47;;;62.77;;
16626;SDS011;8427;52.204;7.202;2023-08-07T16:59:01;72.77;;;49.00;;
16626;SDS011;8427;52.204;7.202;2023-08-07T17:01:29;73.83;;;48.83;;
16626;SDS011;8427;52.204;7.202;2023-08-07T17:03:57;74.90;;;49.93;;
16626;SDS011;8427;52.204;7.202;2023-08-07T17:06:26;73.13;;;48.80;;
16626;SDS011;8427;52.204;7.202;2023-08-07T17:08:54;72.67;;;48.73;;
16626;SDS011;8427;52.204;7.202;2023-08-07T17:11:22;76.20;;;49.27;;
16626;SDS011;8427;52.204;7.202;2023-08-07T17:13:53;79.00;;;50.40;;
16626;SDS011;8427;52.204;7.202;2023-08-07T17:16:21;99.23;;;51.37;;
16626;SDS011;8427;52.204;7.202;2023-08-07T17:18:50;177.90;;;60.20;;
16626;SDS011;8427;52.204;7.202;2023-08-07T17:21:19;207.00;;;65.93;;
16626;SDS011;8427;52.204;7.202;2023-08-07T17:46:00;95.95;;;54.00;;
16626;SDS011;8427;52.204;7.202;2023-08-07T17:48:28;270.70;;;111.60;;
16626;SDS011;8427;52.204;7.202;2023-08-07T19:00:02;156.77;;;59.97;;
16626;SDS011;8427;52.204;7.202;2023-08-07T19:02:32;158.03;;;54.93;;
16626;SDS011;8427;52.204;7.202;2023-08-07T19:05:00;208.77;;;61.20;;
16626;SDS011;8427;52.204;7.202;2023-08-07T19:07:29;82.63;;;48.53;;
16626;SDS011;8427;52.204;7.202;2023-08-07T19:09:57;77.50;;;47.50;;
16626;SDS011;8427;52.204;7.202;2023-08-07T19:12:25;80.90;;;47.97;;
16626;SDS011;8427;52.204;7.202;2023-08-07T19:14:53;76.37;;;47.80;;
16626;SDS011;8427;52.204;7.202;2023-08-07T19:17:21;75.37;;;47.40;;
16626;SDS011;8427;52.204;7.202;2023-08-07T19:19:49;70.60;;;47.20;;
16626;SDS011;8427;52.204;7.202;2023-08-07T19:22:16;72.17;;;47.50;;
16626;SDS011;8427;52.204;7.202;2023-08-07T19:24:46;74.73;;;46.97;;
16626;SDS011;8427;52.204;7.202;2023-08-07T19:27:14;72.70;;;47.50;;
16626;SDS011;8427;52.204;7.202;2023-08-07T19:29:42;70.90;;;46.93;;
16626;SDS011;8427;52.204;7.202;2023-08-07T19:32:10;71.37;;;47.67;;
16626;SDS011;8427;52.204;7.202;2023-08-07T19:34:40;68.70;;;46.50;;
16626;SDS011;8427;52.204;7.202;2023-08-07T19:37:07;70.10;;;47.13;;
16626;SDS011;8427;52.204;7.202;2023-08-07T19:39:35;67.47;;;46.37;;
16626;SDS011;8427;52.204;7.202;2023-08-07T19:42:05;69.97;;;46.50;;
16626;SDS011;8427;52.204;7.202;2023-08-07T19:44:33;71.00;;;47.53;;
16626;SDS011;8427;52.204;7.202;2023-08-07T19:47:02;73.60;;;46.80;;
16626;SDS011;8427;52.204;7.202;2023-08-07T19:49:30;74.10;;;47.50;;
16626;SDS011;8427;52.204;7.202;2023-08-07T19:51:58;76.40;;;47.00;;
16626;SDS011;8427;52.204;7.202;2023-08-07T19:54:27;70.00;;;47.40;;
16626;SDS011;8427;52.204;7.202;2023-08-07T19:56:55;71.93;;;47.20;;
16626;SDS011;8427;52.204;7.202;2023-08-07T19:59:24;78.53;;;48.90;;